Time,TemperatureF,DewpointF,PressureIn,WindDirection,WindDirectionDegrees,WindSpeedMPH,WindSpeedGustMPH,Humidity,HourlyPrecipIn,Conditions,Clouds,dailyrainin,SoftwareType,DateUTC
2013-02-07 00:00:00,74.0,65.0,30.07,ESE,120,18.0,21.0,73,-99.99,,,-99.99,,2013-02-07 05:00:00,
2013-02-07 00:21:00,74.0,65.0,30.07,ESE,120,18.0,21.0,73,-99.99,,,-99.99,,2013-02-07 05:21:00,
2013-02-07 00:31:00,74.0,65.0,30.07,ESE,120,18.0,21.0,73,-99.99,,,-99.99,,2013-02-07 05:31:00,
2013-02-07 00:42:00,74.0,65.0,30.07,ESE,120,18.0,21.0,73,-99.99,,,-99.99,,2013-02-07 05:42:00,
2013-02-07 00:52:00,74.0,65.0,30.07,ESE,120,18.0,21.0,73,-99.99,,,-99.99,,2013-02-07 05:52:00,
2013-02-07 01:00:00,74.0,64.0,30.06,ESE,110,20.0,21.0,69,-99.99,,,-99.99,,2013-02-07 06:00:00,
2013-02-07 01:22:00,74.0,64.0,30.06,ESE,110,20.0,21.0,69,-99.99,,,-99.99,,2013-02-07 06:22:00,
2013-02-07 01:31:00,74.0,64.0,30.06,ESE,110,20.0,21.0,69,-99.99,,,-99.99,,2013-02-07 06:31:00,
2013-02-07 01:42:00,74.0,64.0,30.06,ESE,110,20.0,21.0,69,-99.99,,,-99.99,,2013-02-07 06:42:00,
2013-02-07 01:52:00,74.0,64.0,30.06,ESE,110,20.0,21.0,69,-99.99,,,-99.99,,2013-02-07 06:52:00,
2013-02-07 02:00:00,74.0,66.0,30.05,ESE,110,18.0,20.0,74,-99.99,,,-99.99,,2013-02-07 07:00:00,
2013-02-07 02:21:00,74.0,66.0,30.05,ESE,110,18.0,20.0,74,-99.99,,,-99.99,,2013-02-07 07:21:00,
2013-02-07 02:31:00,74.0,66.0,30.05,ESE,110,18.0,20.0,74,-99.99,,,-99.99,,2013-02-07 07:31:00,
2013-02-07 02:41:00,74.0,66.0,30.05,ESE,110,18.0,20.0,74,-99.99,,,-99.99,,2013-02-07 07:41:00,
2013-02-07 02:52:00,74.0,66.0,30.05,ESE,110,18.0,20.0,74,-99.99,,,-99.99,,2013-02-07 07:52:00,
2013-02-07 03:00:00,74.0,66.0,30.04,ESE,120,18.0,20.0,75,-99.99,,,-99.99,,2013-02-07 08:00:00,
2013-02-07 03:21:00,74.0,66.0,30.04,ESE,120,18.0,20.0,75,-99.99,,,-99.99,,2013-02-07 08:21:00,
2013-02-07 03:31:00,74.0,66.0,30.04,ESE,120,18.0,20.0,75,-99.99,,,-99.99,,2013-02-07 08:31:00,
2013-02-07 03:41:00,74.0,66.0,30.04,ESE,120,18.0,20.0,75,-99.99,,,-99.99,,2013-02-07 08:41:00,
2013-02-07 03:52:00,74.0,66.0,30.04,ESE,120,18.0,20.0,75,-99.99,,,-99.99,,2013-02-07 08:52:00,
2013-02-07 04:00:00,74.0,66.0,30.03,SE,130,18.0,21.0,75,-99.99,,,-99.99,,2013-02-07 09:00:00,
2013-02-07 04:21:00,74.0,66.0,30.03,SE,130,18.0,21.0,75,-99.99,,,-99.99,,2013-02-07 09:21:00,
2013-02-07 04:31:00,74.0,66.0,30.03,SE,130,18.0,21.0,75,-99.99,,,-99.99,,2013-02-07 09:31:00,
2013-02-07 04:41:00,74.0,66.0,30.03,SE,130,18.0,21.0,75,-99.99,,,-99.99,,2013-02-07 09:41:00,
2013-02-07 04:51:00,74.0,66.0,30.03,SE,130,18.0,21.0,75,-99.99,,,-99.99,,2013-02-07 09:51:00,
2013-02-07 05:00:00,74.0,66.0,30.03,SE,130,17.0,18.0,77,-99.99,,,-99.99,,2013-02-07 10:00:00,
2013-02-07 05:21:00,74.0,66.0,30.03,SE,130,17.0,18.0,77,-99.99,,,-99.99,,2013-02-07 10:21:00,
2013-02-07 05:31:00,74.0,66.0,30.03,SE,130,17.0,18.0,77,-99.99,,,-99.99,,2013-02-07 10:31:00,
2013-02-07 05:41:00,74.0,66.0,30.03,SE,130,17.0,18.0,77,-99.99,,,-99.99,,2013-02-07 10:41:00,
2013-02-07 05:51:00,74.0,66.0,30.03,SE,130,17.0,18.0,77,-99.99,,,-99.99,,2013-02-07 10:51:00,
2013-02-07 06:00:00,74.0,67.0,30.03,SE,130,16.0,18.0,78,-99.99,,,-99.99,,2013-02-07 11:00:00,
2013-02-07 06:22:00,74.0,67.0,30.03,SE,130,16.0,18.0,78,-99.99,,,-99.99,,2013-02-07 11:22:00,
2013-02-07 06:32:00,74.0,67.0,30.03,SE,130,16.0,18.0,78,-99.99,,,-99.99,,2013-02-07 11:32:00,
2013-02-07 06:43:00,74.0,67.0,30.03,SE,130,16.0,18.0,78,-99.99,,,-99.99,,2013-02-07 11:43:00,
2013-02-07 06:52:00,74.0,67.0,30.03,SE,130,16.0,18.0,78,-99.99,,,-99.99,,2013-02-07 11:52:00,
2013-02-07 07:00:00,74.0,64.0,30.05,SE,130,14.0,15.0,72,-99.99,,,-99.99,,2013-02-07 12:00:00,
2013-02-07 07:21:00,74.0,64.0,30.05,SE,130,14.0,15.0,72,-99.99,,,-99.99,,2013-02-07 12:21:00,
2013-02-07 07:32:00,74.0,64.0,30.05,SE,130,14.0,15.0,72,-99.99,,,-99.99,,2013-02-07 12:32:00,
2013-02-07 07:41:00,74.0,64.0,30.05,SE,130,14.0,15.0,72,-99.99,,,-99.99,,2013-02-07 12:41:00,
2013-02-07 07:52:00,74.0,64.0,30.05,SE,130,14.0,15.0,72,-99.99,,,-99.99,,2013-02-07 12:52:00,
2013-02-07 08:00:00,74.0,65.0,30.06,SE,130,15.0,17.0,73,-99.99,,,-99.99,,2013-02-07 13:00:00,
2013-02-07 08:31:00,74.0,65.0,30.06,SE,130,15.0,17.0,73,-99.99,,,-99.99,,2013-02-07 13:31:00,
2013-02-07 08:41:00,74.0,65.0,30.06,SE,130,15.0,17.0,73,-99.99,,,-99.99,,2013-02-07 13:41:00,
2013-02-07 08:51:00,74.0,65.0,30.06,SE,130,15.0,17.0,73,-99.99,,,-99.99,,2013-02-07 13:51:00,
2013-02-07 09:00:00,75.0,66.0,30.07,SE,130,13.0,13.0,73,-99.99,,,-99.99,,2013-02-07 14:00:00,
2013-02-07 09:21:00,75.0,66.0,30.07,SE,130,13.0,13.0,73,-99.99,,,-99.99,,2013-02-07 14:21:00,
2013-02-07 09:31:00,75.0,66.0,30.07,SE,130,13.0,13.0,73,-99.99,,,-99.99,,2013-02-07 14:31:00,
2013-02-07 09:41:00,75.0,66.0,30.07,SE,130,13.0,13.0,73,-99.99,,,-99.99,,2013-02-07 14:41:00,
2013-02-07 09:52:00,75.0,66.0,30.07,SE,130,13.0,13.0,73,-99.99,,,-99.99,,2013-02-07 14:52:00,
2013-02-07 10:00:00,75.0,65.0,30.08,SE,130,11.0,13.0,71,-99.99,,,-99.99,,2013-02-07 15:00:00,
2013-02-07 10:21:00,75.0,65.0,30.08,SE,130,11.0,13.0,71,-99.99,,,-99.99,,2013-02-07 15:21:00,
2013-02-07 10:31:00,75.0,65.0,30.08,SE,130,11.0,13.0,71,-99.99,,,-99.99,,2013-02-07 15:31:00,
2013-02-07 10:41:00,75.0,65.0,30.08,SE,130,11.0,13.0,71,-99.99,,,-99.99,,2013-02-07 15:41:00,
2013-02-07 10:52:00,75.0,65.0,30.08,SE,130,11.0,13.0,71,-99.99,,,-99.99,,2013-02-07 15:52:00,
2013-02-07 11:00:00,76.0,66.0,30.08,SE,130,11.0,13.0,72,-99.99,,,-99.99,,2013-02-07 16:00:00,
2013-02-07 11:21:00,76.0,66.0,30.08,SE,130,11.0,13.0,72,-99.99,,,-99.99,,2013-02-07 16:21:00,
2013-02-07 11:31:00,76.0,66.0,30.08,SE,130,11.0,13.0,72,-99.99,,,-99.99,,2013-02-07 16:31:00,
2013-02-07 11:41:00,76.0,66.0,30.08,SE,130,11.0,13.0,72,-99.99,,,-99.99,,2013-02-07 16:41:00,
2013-02-07 11:52:00,76.0,66.0,30.08,SE,130,11.0,13.0,72,-99.99,,,-99.99,,2013-02-07 16:52:00,
2013-02-07 12:00:00,76.0,66.0,30.06,SE,140,13.0,14.0,71,-99.99,,,-99.99,,2013-02-07 17:00:00,
2013-02-07 12:21:00,76.0,66.0,30.06,SE,140,13.0,14.0,71,-99.99,,,-99.99,,2013-02-07 17:21:00,
2013-02-07 12:31:00,76.0,66.0,30.06,SE,140,13.0,14.0,71,-99.99,,,-99.99,,2013-02-07 17:31:00,
2013-02-07 12:41:00,76.0,66.0,30.06,SE,140,13.0,14.0,71,-99.99,,,-99.99,,2013-02-07 17:41:00,
2013-02-07 12:52:00,76.0,66.0,30.06,SE,140,13.0,14.0,71,-99.99,,,-99.99,,2013-02-07 17:52:00,
2013-02-07 13:00:00,76.0,66.0,30.03,SSE,160,14.0,15.0,69,-99.99,,,-99.99,,2013-02-07 18:00:00,
2013-02-07 13:22:00,76.0,66.0,30.03,SSE,160,14.0,15.0,69,-99.99,,,-99.99,,2013-02-07 18:22:00,
2013-02-07 13:31:00,76.0,66.0,30.03,SSE,160,14.0,15.0,69,-99.99,,,-99.99,,2013-02-07 18:31:00,
2013-02-07 13:41:00,76.0,66.0,30.03,SSE,160,14.0,15.0,69,-99.99,,,-99.99,,2013-02-07 18:41:00,
2013-02-07 13:51:00,76.0,66.0,30.03,SSE,160,14.0,15.0,69,-99.99,,,-99.99,,2013-02-07 18:51:00,
2013-02-07 14:00:00,76.0,64.0,29.98,SSE,160,16.0,17.0,65,-99.99,,,-99.99,,2013-02-07 19:00:00,
2013-02-07 14:21:00,76.0,64.0,29.98,SSE,160,16.0,17.0,65,-99.99,,,-99.99,,2013-02-07 19:21:00,
2013-02-07 14:31:00,76.0,64.0,29.98,SSE,160,16.0,17.0,65,-99.99,,,-99.99,,2013-02-07 19:31:00,
2013-02-07 14:41:00,76.0,64.0,29.98,SSE,160,16.0,17.0,65,-99.99,,,-99.99,,2013-02-07 19:41:00,
2013-02-07 14:51:00,76.0,64.0,29.98,SSE,160,16.0,17.0,65,-99.99,,,-99.99,,2013-02-07 19:51:00,
2013-02-07 15:00:00,77.0,65.0,29.98,SSE,160,13.0,14.0,67,-99.99,,,-99.99,,2013-02-07 20:00:00,
2013-02-07 15:21:00,77.0,65.0,29.98,SSE,160,13.0,14.0,67,-99.99,,,-99.99,,2013-02-07 20:21:00,
2013-02-07 15:31:00,77.0,65.0,29.98,SSE,160,13.0,14.0,67,-99.99,,,-99.99,,2013-02-07 20:31:00,
2013-02-07 15:41:00,77.0,65.0,29.98,SSE,160,13.0,14.0,67,-99.99,,,-99.99,,2013-02-07 20:41:00,
2013-02-07 15:52:00,77.0,65.0,29.98,SSE,160,13.0,14.0,67,-99.99,,,-99.99,,2013-02-07 20:52:00,
2013-02-07 16:00:00,77.0,67.0,29.98,SSE,160,10.0,10.0,70,-99.99,,,-99.99,,2013-02-07 21:00:00,
2013-02-07 16:21:00,77.0,67.0,29.98,SSE,160,10.0,10.0,70,-99.99,,,-99.99,,2013-02-07 21:21:00,
2013-02-07 16:31:00,77.0,67.0,29.98,SSE,160,10.0,10.0,70,-99.99,,,-99.99,,2013-02-07 21:31:00,
2013-02-07 16:41:00,77.0,67.0,29.98,SSE,160,10.0,10.0,70,-99.99,,,-99.99,,2013-02-07 21:41:00,
2013-02-07 16:51:00,77.0,67.0,29.98,SSE,160,10.0,10.0,70,-99.99,,,-99.99,,2013-02-07 21:51:00,
2013-02-07 17:00:00,77.0,69.0,29.98,SSE,160,9.0,10.0,75,-99.99,,,-99.99,,2013-02-07 22:00:00,
2013-02-07 17:21:00,77.0,69.0,29.98,SSE,160,9.0,10.0,75,-99.99,,,-99.99,,2013-02-07 22:21:00,
2013-02-07 17:31:00,77.0,69.0,29.98,SSE,160,9.0,10.0,75,-99.99,,,-99.99,,2013-02-07 22:31:00,
2013-02-07 17:42:00,77.0,69.0,29.98,SSE,160,9.0,10.0,75,-99.99,,,-99.99,,2013-02-07 22:42:00,
2013-02-07 17:51:00,77.0,69.0,29.98,SSE,160,9.0,10.0,75,-99.99,,,-99.99,,2013-02-07 22:51:00,
2013-02-07 18:00:00,76.0,70.0,29.99,SE,140,5.0,7.0,82,-99.99,,,-99.99,,2013-02-07 23:00:00,
2013-02-07 18:21:00,76.0,70.0,29.99,SE,140,5.0,7.0,82,-99.99,,,-99.99,,2013-02-07 23:21:00,
2013-02-07 18:31:00,76.0,70.0,29.99,SE,140,5.0,7.0,82,-99.99,,,-99.99,,2013-02-07 23:31:00,
2013-02-07 18:41:00,76.0,70.0,29.99,SE,140,5.0,7.0,82,-99.99,,,-99.99,,2013-02-07 23:41:00,
2013-02-07 18:52:00,76.0,70.0,29.99,SE,140,5.0,7.0,82,-99.99,,,-99.99,,2013-02-07 23:52:00,
2013-02-07 19:00:00,74.0,70.0,30.00,SE,130,6.0,6.0,86,-99.99,,,-99.99,,2013-02-08 00:00:00,
2013-02-07 19:21:00,74.0,70.0,30.00,SE,130,6.0,6.0,86,-99.99,,,-99.99,,2013-02-08 00:21:00,
2013-02-07 19:31:00,74.0,70.0,30.00,SE,130,6.0,6.0,86,-99.99,,,-99.99,,2013-02-08 00:31:00,
2013-02-07 19:41:00,74.0,70.0,30.00,SE,130,6.0,6.0,86,-99.99,,,-99.99,,2013-02-08 00:41:00,
2013-02-07 19:52:00,74.0,70.0,30.00,SE,130,6.0,6.0,86,-99.99,,,-99.99,,2013-02-08 00:52:00,
2013-02-07 20:00:00,74.0,71.0,30.00,East,100,6.0,7.0,87,-99.99,,,-99.99,,2013-02-08 01:00:00,
2013-02-07 20:21:00,74.0,71.0,30.00,East,100,6.0,7.0,87,-99.99,,,-99.99,,2013-02-08 01:21:00,
2013-02-07 20:31:00,74.0,71.0,30.00,East,100,6.0,7.0,87,-99.99,,,-99.99,,2013-02-08 01:31:00,
2013-02-07 20:41:00,74.0,71.0,30.00,East,100,6.0,7.0,87,-99.99,,,-99.99,,2013-02-08 01:41:00,
2013-02-07 20:51:00,74.0,71.0,30.00,East,100,6.0,7.0,87,-99.99,,,-99.99,,2013-02-08 01:51:00,
2013-02-07 21:00:00,74.0,71.0,30.02,ESE,120,6.0,6.0,89,-99.99,,,-99.99,,2013-02-08 02:00:00,
2013-02-07 21:21:00,74.0,71.0,30.02,ESE,120,6.0,6.0,89,-99.99,,,-99.99,,2013-02-08 02:21:00,
2013-02-07 21:31:00,74.0,71.0,30.02,ESE,120,6.0,6.0,89,-99.99,,,-99.99,,2013-02-08 02:31:00,
2013-02-07 21:42:00,74.0,71.0,30.02,ESE,120,6.0,6.0,89,-99.99,,,-99.99,,2013-02-08 02:42:00,
2013-02-07 21:52:00,74.0,71.0,30.02,ESE,120,6.0,6.0,89,-99.99,,,-99.99,,2013-02-08 02:52:00,
2013-02-07 22:00:00,74.0,71.0,30.04,ESE,110,3.0,3.0,89,-99.99,,,-99.99,,2013-02-08 03:00:00,
2013-02-07 22:22:00,74.0,71.0,30.04,ESE,110,3.0,3.0,89,-99.99,,,-99.99,,2013-02-08 03:22:00,
2013-02-07 22:31:00,74.0,71.0,30.04,ESE,110,3.0,3.0,89,-99.99,,,-99.99,,2013-02-08 03:31:00,
2013-02-07 22:41:00,74.0,71.0,30.04,ESE,110,3.0,3.0,89,-99.99,,,-99.99,,2013-02-08 03:41:00,
2013-02-07 22:51:00,74.0,71.0,30.04,ESE,110,3.0,3.0,89,-99.99,,,-99.99,,2013-02-08 03:51:00,
2013-02-07 23:00:00,74.0,71.0,30.04,ESE,120,6.0,7.0,91,-99.99,,,-99.99,,2013-02-08 04:00:00,
2013-02-07 23:21:00,74.0,71.0,30.04,ESE,120,6.0,7.0,91,-99.99,,,-99.99,,2013-02-08 04:21:00,
2013-02-07 23:31:00,74.0,71.0,30.04,ESE,120,6.0,7.0,91,-99.99,,,-99.99,,2013-02-08 04:31:00,
2013-02-07 23:41:00,74.0,71.0,30.04,ESE,120,6.0,7.0,91,-99.99,,,-99.99,,2013-02-08 04:41:00,
2013-02-07 23:51:00,74.0,71.0,30.04,ESE,120,6.0,7.0,91,-99.99,,,-99.99,,2013-02-08 04:51:00,